createdAt,value
2019-06-26T00:00:29.911Z,0.00
2019-06-26T00:01:30.664Z,0.00
2019-06-26T00:02:32.173Z,0.00
2019-06-26T00:03:30.411Z,0.00
2019-06-26T00:04:30.587Z,0.00
2019-06-26T00:05:30.740Z,0.00
2019-06-26T00:06:30.893Z,0.00
2019-06-26T00:07:31.671Z,0.00
2019-06-26T00:08:31.201Z,0.00
2019-06-26T00:09:31.692Z,0.00
2019-06-26T00:10:32.180Z,0.00
2019-06-26T00:11:31.785Z,0.00
2019-06-26T00:12:31.918Z,0.00
2019-06-26T00:13:32.693Z,0.00
2019-06-26T00:14:32.323Z,0.00
2019-06-26T00:15:33.171Z,0.00
2019-06-26T00:16:32.656Z,0.00
2019-06-26T00:17:34.666Z,0.00
2019-06-26T00:18:32.970Z,0.00
2019-06-26T00:19:33.675Z,0.00
2019-06-26T00:20:34.183Z,0.00
2019-06-26T00:21:33.690Z,0.00
2019-06-26T00:22:33.696Z,0.00
2019-06-26T00:23:34.675Z,0.00
2019-06-26T00:24:34.679Z,0.00
2019-06-26T00:25:34.183Z,0.00
2019-06-26T00:26:34.672Z,0.00
2019-06-26T00:27:35.196Z,0.00
2019-06-26T00:28:34.544Z,0.00
2019-06-26T00:29:35.673Z,0.00
2019-06-26T00:30:35.693Z,0.00
2019-06-26T00:31:35.178Z,0.00
2019-06-26T00:32:35.195Z,0.00
2019-06-26T00:33:35.296Z,0.00
2019-06-26T00:34:36.194Z,0.00
2019-06-26T00:35:36.198Z,0.00
2019-06-26T00:36:36.205Z,0.00
2019-06-26T00:37:36.716Z,0.00
2019-06-26T00:38:39.967Z,0.00
2019-06-26T00:39:36.277Z,0.00
2019-06-26T00:40:37.184Z,0.00
2019-06-26T00:41:37.173Z,0.00
2019-06-26T00:42:36.743Z,0.00
2019-06-26T00:43:42.274Z,0.00
2019-06-26T00:44:40.181Z,0.00
2019-06-26T00:45:37.349Z,0.00
2019-06-26T00:46:37.709Z,0.00
2019-06-26T00:47:37.721Z,0.00
2019-06-26T00:48:37.821Z,0.00
2019-06-26T00:49:38.078Z,0.00
2019-06-26T00:50:39.227Z,0.00
2019-06-26T00:51:38.470Z,0.00
2019-06-26T00:52:38.695Z,0.00
2019-06-26T00:53:38.814Z,0.00
2019-06-26T00:54:38.954Z,0.00
2019-06-26T00:55:39.084Z,0.00
2019-06-26T00:56:39.219Z,0.00
2019-06-26T00:57:39.710Z,0.00
2019-06-26T00:58:39.596Z,0.00
2019-06-26T00:59:39.856Z,0.00
2019-06-26T01:00:40.004Z,0.00
2019-06-26T01:01:40.177Z,0.00
2019-06-26T01:02:40.346Z,0.00
2019-06-26T01:03:40.533Z,0.00
2019-06-26T01:04:40.694Z,0.00
2019-06-26T01:05:40.907Z,0.00
2019-06-26T01:06:41.043Z,0.00
2019-06-26T01:07:41.207Z,0.00
2019-06-26T01:08:41.386Z,0.00
2019-06-26T01:09:41.577Z,0.00
2019-06-26T01:10:42.692Z,0.00
2019-06-26T01:11:41.911Z,0.00
2019-06-26T01:12:42.201Z,0.00
2019-06-26T01:13:57.112Z,0.00
2019-06-26T01:14:43.561Z,0.00
2019-06-26T01:15:42.646Z,0.00
2019-06-26T01:16:43.692Z,0.00
2019-06-26T01:17:43.043Z,0.00
2019-06-26T01:18:43.251Z,0.00
2019-06-26T01:19:43.490Z,0.00
2019-06-26T01:20:43.705Z,0.00
2019-06-26T01:21:44.195Z,0.00
2019-06-26T01:22:44.703Z,0.00
2019-06-26T01:23:44.287Z,0.00
2019-06-26T01:24:45.187Z,0.00
2019-06-26T01:25:44.644Z,0.00
2019-06-26T01:26:44.858Z,0.00
2019-06-26T01:27:45.069Z,0.00
2019-06-26T01:28:45.272Z,0.00
2019-06-26T01:30:19.189Z,0.00
2019-06-26T01:30:45.625Z,0.00
2019-06-26T01:31:45.865Z,0.00
2019-06-26T01:32:46.720Z,0.00
2019-06-26T01:33:46.237Z,0.00
2019-06-26T01:34:46.249Z,0.00
2019-06-26T01:35:46.386Z,0.00
2019-06-26T01:36:47.213Z,0.00
2019-06-26T01:37:46.699Z,0.00
2019-06-26T01:38:46.858Z,0.00
2019-06-26T01:39:47.101Z,0.00
2019-06-26T01:40:47.252Z,0.00
2019-06-26T01:41:47.371Z,0.00
2019-06-26T01:42:47.458Z,0.00
2019-06-26T01:43:48.690Z,0.00
2019-06-26T01:44:47.892Z,0.00
2019-06-26T01:45:48.147Z,0.00
2019-06-26T01:46:48.306Z,0.00
2019-06-26T01:47:48.415Z,0.00
2019-06-26T01:48:48.649Z,0.00
2019-06-26T01:49:48.767Z,0.00
2019-06-26T01:50:49.001Z,0.00
2019-06-26T01:51:49.137Z,0.00
2019-06-26T01:52:49.242Z,0.00
2019-06-26T01:53:50.246Z,0.00
2019-06-26T01:54:50.262Z,0.00
2019-06-26T01:55:50.723Z,0.00
2019-06-26T01:56:50.062Z,0.00
2019-06-26T01:57:50.195Z,0.00
2019-06-26T01:58:50.294Z,0.00
2019-06-26T01:59:50.499Z,0.00
2019-06-26T02:00:50.733Z,0.00
2019-06-26T02:01:50.985Z,0.00
2019-06-26T02:02:51.247Z,0.00
2019-06-26T02:03:51.275Z,0.00
2019-06-26T02:04:51.413Z,0.00
2019-06-26T02:05:51.523Z,0.00
2019-06-26T02:06:52.733Z,0.00
2019-06-26T02:07:52.265Z,0.00
2019-06-26T02:08:52.734Z,0.00
2019-06-26T02:09:53.243Z,0.00
2019-06-26T02:10:52.440Z,0.00
2019-06-26T02:11:52.669Z,0.00
2019-06-26T02:12:52.823Z,0.00
2019-06-26T02:13:52.951Z,0.00
2019-06-26T02:14:53.220Z,0.00
2019-06-26T02:15:53.318Z,0.00
2019-06-26T02:16:53.745Z,0.00
2019-06-26T02:17:53.695Z,0.00
2019-06-26T02:18:53.888Z,0.00
2019-06-26T02:19:54.749Z,0.00
2019-06-26T02:20:54.391Z,0.00
2019-06-26T02:21:54.754Z,0.00
2019-06-26T02:22:54.746Z,0.00
2019-06-26T02:23:55.740Z,0.00
2019-06-26T02:25:28.735Z,0.00
2019-06-26T02:25:55.406Z,0.00
2019-06-26T02:26:55.638Z,0.00
2019-06-26T02:27:55.738Z,0.00
2019-06-26T02:28:55.982Z,0.00
2019-06-26T02:29:56.103Z,0.00
2019-06-26T02:30:56.232Z,0.00
2019-06-26T02:31:56.336Z,0.00
2019-06-26T02:32:56.596Z,0.00
2019-06-26T02:33:56.746Z,0.00
2019-06-26T02:34:56.877Z,0.00
2019-06-26T02:35:57.152Z,0.00
2019-06-26T02:36:57.312Z,0.00
2019-06-26T02:37:57.431Z,0.00
2019-06-26T02:38:57.675Z,4.00
2019-06-26T02:39:57.778Z,0.00
2019-06-26T02:40:58.025Z,0.00
2019-06-26T02:41:58.288Z,0.00
2019-06-26T02:42:58.275Z,4.00
2019-06-26T02:43:58.385Z,4.00
2019-06-26T02:44:58.633Z,0.00
2019-06-26T02:45:58.757Z,4.00
2019-06-26T02:47:17.639Z,4.00
2019-06-26T02:48:01.246Z,4.00
2019-06-26T02:48:59.467Z,8.00
2019-06-26T02:49:59.606Z,4.00
2019-06-26T02:50:59.724Z,4.00
2019-06-26T02:52:00.303Z,4.00
2019-06-26T02:53:00.171Z,8.00
2019-06-26T02:54:00.439Z,8.00
2019-06-26T02:55:00.549Z,8.00
2019-06-26T02:56:00.795Z,8.00
2019-06-26T02:57:01.299Z,12.00
2019-06-26T02:58:01.164Z,12.00
2019-06-26T02:59:01.414Z,12.00
2019-06-26T03:00:01.534Z,16.00
2019-06-26T03:01:01.691Z,16.00
2019-06-26T03:02:01.821Z,16.00
2019-06-26T03:03:01.982Z,20.00
2019-06-26T03:04:02.100Z,20.00
2019-06-26T03:05:02.571Z,20.00
2019-06-26T03:06:03.284Z,24.00
2019-06-26T03:07:02.524Z,28.00
2019-06-26T03:08:02.677Z,32.00
2019-06-26T03:09:03.798Z,32.00
2019-06-26T03:10:03.032Z,36.00
2019-06-26T03:11:03.790Z,40.00
2019-06-26T03:12:04.286Z,40.00
2019-06-26T03:13:03.673Z,44.00
2019-06-26T03:14:03.790Z,48.00
2019-06-26T03:15:08.793Z,52.00
2019-06-26T03:16:06.789Z,56.00
2019-06-26T03:17:04.378Z,64.00
2019-06-26T03:18:04.531Z,64.00
2019-06-26T03:19:04.688Z,68.00
2019-06-26T03:20:05.799Z,76.00
2019-06-26T03:21:04.986Z,80.00
2019-06-26T03:22:06.226Z,84.00
2019-06-26T03:23:06.302Z,92.00
2019-06-26T03:24:05.686Z,96.00
2019-06-26T03:25:05.837Z,104.00
2019-06-26T03:26:06.800Z,108.00
2019-06-26T03:27:09.045Z,112.00
2019-06-26T03:28:08.286Z,120.00
2019-06-26T03:29:07.307Z,124.00
2019-06-26T03:30:06.804Z,132.00
2019-06-26T03:31:06.797Z,140.00
2019-06-26T03:32:06.901Z,148.00
2019-06-26T03:33:07.825Z,156.00
2019-06-26T03:34:07.204Z,164.00
2019-06-26T03:35:07.821Z,172.00
2019-06-26T03:36:07.585Z,180.00
2019-06-26T03:37:08.810Z,192.00
2019-06-26T03:38:08.334Z,200.00
2019-06-26T03:39:08.788Z,208.00
2019-06-26T03:40:08.386Z,220.00
2019-06-26T03:41:08.493Z,228.00
2019-06-26T03:42:09.289Z,240.00
2019-06-26T03:43:09.309Z,248.00
2019-06-26T03:44:09.052Z,252.00
2019-06-26T03:45:24.513Z,260.00
2019-06-26T03:46:10.436Z,268.00
2019-06-26T03:47:10.303Z,280.00
2019-06-26T03:48:10.327Z,288.00
2019-06-26T03:49:09.797Z,300.00
2019-06-26T03:50:10.801Z,316.00
2019-06-26T03:51:13.768Z,336.00
2019-06-26T03:52:11.307Z,356.00
2019-06-26T03:53:12.302Z,376.00
2019-06-26T03:54:10.790Z,396.00
2019-06-26T03:55:10.909Z,416.00
2019-06-26T03:56:11.809Z,432.00
2019-06-26T03:57:11.182Z,444.00
2019-06-26T03:58:12.305Z,464.00
2019-06-26T03:59:11.826Z,480.00
2019-06-26T04:00:12.308Z,496.00
2019-06-26T04:01:11.941Z,516.00
2019-06-26T04:02:12.067Z,532.00
2019-06-26T04:03:12.188Z,552.00
2019-06-26T04:04:12.321Z,568.00
2019-06-26T04:05:12.474Z,588.00
2019-06-26T04:06:12.975Z,604.00
2019-06-26T04:07:13.304Z,620.00
2019-06-26T04:08:13.034Z,640.00
2019-06-26T04:09:13.156Z,660.00
2019-06-26T04:10:13.293Z,680.00
2019-06-26T04:11:14.321Z,704.00
2019-06-26T04:12:14.300Z,724.00
2019-06-26T04:13:13.762Z,744.00
2019-06-26T04:14:13.867Z,768.00
2019-06-26T04:15:14.188Z,792.00
2019-06-26T04:16:14.329Z,816.00
2019-06-26T04:17:14.441Z,836.00
2019-06-26T04:18:14.699Z,856.00
2019-06-26T04:19:14.825Z,884.00
2019-06-26T04:20:14.983Z,908.00
2019-06-26T04:21:15.126Z,928.00
2019-06-26T04:22:15.261Z,952.00
2019-06-26T04:23:15.403Z,976.00
2019-06-26T04:24:15.528Z,1000.00
2019-06-26T04:25:15.678Z,1024.00
2019-06-26T04:26:16.866Z,1052.00
2019-06-26T04:27:15.987Z,1076.00
2019-06-26T04:28:16.142Z,1100.00
2019-06-26T04:29:18.336Z,1128.00
2019-06-26T04:30:16.550Z,1156.00
2019-06-26T04:31:16.681Z,1180.00
2019-06-26T04:32:17.830Z,1212.00
2019-06-26T04:33:17.072Z,1240.00
2019-06-26T04:34:17.172Z,1272.00
2019-06-26T04:35:17.420Z,1300.00
2019-06-26T04:36:18.576Z,1328.00
2019-06-26T04:37:17.784Z,1364.00
2019-06-26T04:38:18.010Z,1392.00
2019-06-26T04:39:18.257Z,1424.00
2019-06-26T04:40:20.469Z,1456.00
2019-06-26T04:41:19.652Z,1484.00
2019-06-26T04:42:18.743Z,1512.00
2019-06-26T04:43:19.827Z,1556.00
2019-06-26T04:44:19.826Z,1584.00
2019-06-26T04:45:19.346Z,1612.00
2019-06-26T04:46:19.491Z,1644.00
2019-06-26T04:47:19.603Z,1684.00
2019-06-26T04:48:19.717Z,1740.00
2019-06-26T04:49:19.962Z,1840.00
2019-06-26T04:50:20.857Z,2344.00
2019-06-26T04:51:20.225Z,3184.00
2019-06-26T04:52:20.342Z,3412.00
2019-06-26T04:53:20.584Z,5748.00
2019-06-26T04:54:20.825Z,4240.00
2019-06-26T04:55:21.059Z,4024.00
2019-06-26T04:56:21.195Z,8656.00
2019-06-26T04:57:21.325Z,11868.00
2019-06-26T04:58:21.499Z,8840.00
2019-06-26T04:59:21.631Z,3708.00
2019-06-26T05:00:22.073Z,2248.00
2019-06-26T05:01:22.815Z,2316.00
2019-06-26T05:02:22.065Z,2976.00
2019-06-26T05:03:22.313Z,3648.00
2019-06-26T05:04:22.343Z,3232.00
2019-06-26T05:05:38.612Z,2604.00
2019-06-26T05:06:23.661Z,2720.00
2019-06-26T05:07:22.849Z,3724.00
2019-06-26T05:08:23.824Z,5348.00
2019-06-26T05:09:23.230Z,9188.00
2019-06-26T05:10:23.362Z,9496.00
2019-06-26T05:11:24.325Z,6620.00
2019-06-26T05:12:24.326Z,5488.00
2019-06-26T05:13:23.945Z,4000.00
2019-06-26T05:14:24.077Z,3164.00
2019-06-26T05:15:24.189Z,3172.00
2019-06-26T05:16:24.419Z,3604.00
2019-06-26T05:17:24.541Z,10676.00
2019-06-26T05:18:24.782Z,14112.00
2019-06-26T05:19:25.410Z,8536.00
2019-06-26T05:20:25.161Z,4572.00
2019-06-26T05:21:25.311Z,4092.00
2019-06-26T05:22:25.455Z,6300.00
2019-06-26T05:23:25.849Z,7540.00
2019-06-26T05:24:25.730Z,3632.00
2019-06-26T05:25:26.001Z,3340.00
2019-06-26T05:26:26.119Z,4092.00
2019-06-26T05:27:26.274Z,4852.00
2019-06-26T05:28:26.411Z,4496.00
2019-06-26T05:29:27.332Z,3328.00
2019-06-26T05:30:26.728Z,3096.00
2019-06-26T05:31:26.873Z,3200.00
2019-06-26T05:32:27.852Z,3192.00
2019-06-26T05:33:27.838Z,3156.00
2019-06-26T05:34:27.471Z,3120.00
2019-06-26T05:35:27.632Z,3152.00
2019-06-26T05:36:27.794Z,3168.00
2019-06-26T05:37:27.938Z,3208.00
2019-06-26T05:38:28.119Z,3516.00
2019-06-26T05:39:28.277Z,3928.00
2019-06-26T05:40:28.445Z,3252.00
2019-06-26T05:41:28.625Z,3276.00
2019-06-26T05:42:28.788Z,3324.00
2019-06-26T05:43:28.967Z,3300.00
2019-06-26T05:44:29.142Z,3352.00
2019-06-26T05:45:29.378Z,3352.00
2019-06-26T05:46:31.468Z,3640.00
2019-06-26T05:47:30.681Z,3468.00
2019-06-26T05:48:29.923Z,3496.00
2019-06-26T05:49:30.186Z,3496.00
2019-06-26T05:50:30.316Z,3508.00
2019-06-26T05:51:30.596Z,3516.00
2019-06-26T05:52:30.729Z,3560.00
2019-06-26T05:53:30.970Z,3564.00
2019-06-26T05:54:31.209Z,3788.00
2019-06-26T05:55:31.442Z,4008.00
2019-06-26T05:56:31.607Z,3940.00
2019-06-26T05:57:31.871Z,3924.00
2019-06-26T05:58:31.866Z,3748.00
2019-06-26T05:59:32.883Z,3744.00
2019-06-26T06:00:32.909Z,3756.00
2019-06-26T06:01:32.397Z,3816.00
2019-06-26T06:02:32.871Z,3832.00
2019-06-26T06:03:32.714Z,3852.00
2019-06-26T06:04:32.858Z,3856.00
2019-06-26T06:05:33.008Z,3896.00
2019-06-26T06:06:41.540Z,3908.00
2019-06-26T06:07:35.379Z,3920.00
2019-06-26T06:08:33.864Z,4048.00
2019-06-26T06:09:34.353Z,4060.00
2019-06-26T06:10:33.710Z,4244.00
2019-06-26T06:11:35.365Z,4068.00
2019-06-26T06:12:33.960Z,4096.00
2019-06-26T06:13:34.383Z,4128.00
2019-06-26T06:14:34.868Z,4184.00
2019-06-26T06:15:34.415Z,4184.00
2019-06-26T06:16:47.028Z,4260.00
2019-06-26T06:17:36.711Z,4324.00
2019-06-26T06:18:34.881Z,4284.00
2019-06-26T06:19:35.088Z,4340.00
2019-06-26T06:20:35.222Z,4368.00
2019-06-26T06:21:35.378Z,4416.00
2019-06-26T06:22:36.951Z,4472.00
2019-06-26T06:23:35.700Z,4532.00
2019-06-26T06:24:36.905Z,4604.00
2019-06-26T06:25:36.854Z,15808.00
2019-06-26T06:26:36.940Z,4940.00
2019-06-26T06:27:37.428Z,6616.00
2019-06-26T06:28:36.705Z,13828.00
2019-06-26T06:29:36.855Z,42368.00
2019-06-26T06:30:37.427Z,55424.00
2019-06-26T06:31:37.203Z,54848.00
2019-06-26T06:32:37.880Z,51008.00
2019-06-26T06:33:37.583Z,37696.00
2019-06-26T06:34:38.422Z,34816.00
2019-06-26T06:35:37.941Z,36864.00
2019-06-26T06:36:38.090Z,25056.00
2019-06-26T06:37:38.203Z,14776.00
2019-06-26T06:38:38.364Z,8172.00
2019-06-26T06:39:38.544Z,5016.00
2019-06-26T06:40:38.708Z,13784.00
2019-06-26T06:41:38.858Z,28992.00
2019-06-26T06:42:39.006Z,42560.00
2019-06-26T06:43:39.183Z,58144.00
2019-06-26T06:44:39.311Z,39360.00
2019-06-26T06:45:39.519Z,6612.00
2019-06-26T06:46:39.665Z,10092.00
2019-06-26T06:47:39.847Z,7132.00
2019-06-26T06:48:40.011Z,14068.00
2019-06-26T06:49:40.874Z,5084.00
2019-06-26T06:50:40.442Z,5024.00
2019-06-26T06:51:40.622Z,4920.00
2019-06-26T06:52:40.767Z,5112.00
2019-06-26T06:53:40.946Z,5044.00
2019-06-26T06:54:41.065Z,5032.00
2019-06-26T06:55:41.198Z,5132.00
2019-06-26T06:56:41.436Z,5176.00
2019-06-26T06:57:41.470Z,5224.00
2019-06-26T06:58:41.632Z,5132.00
2019-06-26T06:59:41.760Z,5224.00
2019-06-26T07:00:42.041Z,5180.00
2019-06-26T07:01:42.200Z,5204.00
2019-06-26T07:02:42.391Z,5180.00
2019-06-26T07:03:42.578Z,5188.00
2019-06-26T07:04:42.744Z,5176.00
2019-06-26T07:05:42.939Z,5196.00
2019-06-26T07:06:43.071Z,5236.00
2019-06-26T07:07:43.288Z,5184.00
2019-06-26T07:08:43.371Z,5208.00
2019-06-26T07:09:43.599Z,5204.00
2019-06-26T07:10:43.821Z,5196.00
2019-06-26T07:11:43.975Z,5180.00
2019-06-26T07:12:44.117Z,5140.00
2019-06-26T07:13:44.257Z,5188.00
2019-06-26T07:14:44.420Z,5204.00
2019-06-26T07:15:44.592Z,5268.00
2019-06-26T07:16:44.858Z,5540.00
2019-06-26T07:17:44.926Z,10940.00
2019-06-26T07:18:45.071Z,16384.00
2019-06-26T07:19:45.332Z,11940.00
2019-06-26T07:20:45.469Z,6300.00
2019-06-26T07:21:45.606Z,5304.00
2019-06-26T07:22:45.801Z,5228.00
2019-06-26T07:23:46.008Z,6220.00
2019-06-26T07:24:46.198Z,11928.00
2019-06-26T07:25:46.313Z,18240.00
2019-06-26T07:26:46.441Z,20736.00
2019-06-26T07:27:46.593Z,23584.00
2019-06-26T07:28:46.736Z,10464.00
2019-06-26T07:29:46.923Z,6992.00
2019-06-26T07:30:47.052Z,5200.00
2019-06-26T07:31:47.878Z,5588.00
2019-06-26T07:32:47.336Z,5544.00
2019-06-26T07:33:47.492Z,5160.00
2019-06-26T07:34:47.640Z,5296.00
2019-06-26T07:35:47.786Z,5080.00
2019-06-26T07:36:47.970Z,5200.00
2019-06-26T07:37:48.150Z,6396.00
2019-06-26T07:38:48.335Z,6856.00
2019-06-26T07:39:49.948Z,10068.00
2019-06-26T07:40:48.734Z,6684.00
2019-06-26T07:41:48.903Z,13504.00
2019-06-26T07:42:49.080Z,25792.00
2019-06-26T07:43:49.263Z,22944.00
2019-06-26T07:44:49.445Z,7568.00
2019-06-26T07:45:49.710Z,6424.00
2019-06-26T07:46:49.832Z,5364.00
2019-06-26T07:47:49.995Z,5228.00
2019-06-26T07:48:50.157Z,5128.00
2019-06-26T07:49:50.318Z,8200.00
2019-06-26T07:50:50.491Z,11840.00
2019-06-26T07:51:50.672Z,12264.00
2019-06-26T07:52:51.036Z,18528.00
2019-06-26T07:53:50.960Z,16064.00
2019-06-26T07:54:51.108Z,12316.00
2019-06-26T07:55:51.277Z,6324.00
2019-06-26T07:56:52.391Z,5256.00
2019-06-26T07:57:51.610Z,5104.00
2019-06-26T07:59:29.798Z,6192.00
2019-06-26T07:59:55.586Z,5528.00
2019-06-26T08:00:52.102Z,5072.00
2019-06-26T08:01:54.503Z,5484.00
2019-06-26T08:03:04.504Z,6468.00
2019-06-26T08:03:57.507Z,5600.00
2019-06-26T08:04:53.268Z,33856.00
2019-06-26T08:06:40.868Z,20672.00
2019-06-26T08:06:53.179Z,21664.00
2019-06-26T08:07:53.291Z,6368.00
2019-06-26T08:08:53.503Z,5300.00
2019-06-26T08:09:53.541Z,6136.00
2019-06-26T08:10:53.679Z,5088.00
2019-06-26T08:11:53.821Z,5084.00
2019-06-26T08:12:53.940Z,5120.00
2019-06-26T08:13:54.137Z,5180.00
2019-06-26T08:14:54.935Z,5168.00
2019-06-26T08:15:54.524Z,5356.00
2019-06-26T08:16:54.648Z,6344.00
2019-06-26T08:18:00.434Z,5336.00
2019-06-26T08:18:57.013Z,6956.00
2019-06-26T08:19:55.819Z,5436.00
2019-06-26T08:21:11.067Z,5196.00
2019-06-26T08:21:57.509Z,5052.00
2019-06-26T08:22:55.849Z,5188.00
2019-06-26T08:23:55.888Z,5224.00
2019-06-26T08:24:56.058Z,5016.00
2019-06-26T08:26:30.442Z,4888.00
2019-06-26T08:26:56.979Z,4736.00
2019-06-26T08:27:56.632Z,5112.00
2019-06-26T08:28:56.790Z,5760.00
2019-06-26T08:29:57.093Z,4892.00
2019-06-26T08:31:18.281Z,4772.00
2019-06-26T08:32:10.815Z,4868.00
2019-06-26T08:32:59.408Z,4820.00
2019-06-26T08:33:57.772Z,4852.00
2019-06-26T08:34:57.844Z,4920.00
2019-06-26T08:35:58.975Z,4812.00
2019-06-26T08:36:58.252Z,4796.00
2019-06-26T08:38:10.201Z,4764.00
2019-06-26T08:39:00.574Z,6376.00
2019-06-26T08:39:58.775Z,10932.00
2019-06-26T08:40:58.957Z,3444.00
2019-06-26T08:41:59.218Z,13772.00
2019-06-26T08:42:59.331Z,18720.00
2019-06-26T08:43:59.516Z,31872.00
2019-06-26T08:45:00.034Z,14472.00
2019-06-26T08:45:59.793Z,4712.00
2019-06-26T08:47:00.569Z,5092.00
2019-06-26T08:48:16.920Z,16620.00
2019-06-26T08:49:02.247Z,4816.00
2019-06-26T08:50:00.533Z,4656.00
2019-06-26T08:51:00.665Z,4600.00
2019-06-26T08:52:01.834Z,4588.00
2019-06-26T08:53:00.980Z,4656.00
2019-06-26T08:54:04.504Z,4672.00
2019-06-26T08:55:01.441Z,4616.00
2019-06-26T08:56:01.588Z,4552.00
2019-06-26T08:57:01.861Z,4516.00
2019-06-26T08:58:02.025Z,4480.00
2019-06-26T08:59:03.986Z,4448.00
2019-06-26T09:00:02.366Z,4372.00
2019-06-26T09:01:02.492Z,4268.00
2019-06-26T09:02:02.735Z,4232.00
2019-06-26T09:03:03.540Z,4192.00
2019-06-26T09:04:03.006Z,4104.00
2019-06-26T09:05:03.960Z,4280.00
2019-06-26T09:06:03.423Z,4364.00
2019-06-26T09:07:04.004Z,4168.00
2019-06-26T09:08:04.611Z,4164.00
2019-06-26T09:09:04.078Z,4084.00
2019-06-26T09:10:04.240Z,8152.00
2019-06-26T09:11:04.397Z,10316.00
2019-06-26T09:12:04.979Z,6884.00
2019-06-26T09:13:04.741Z,8220.00
2019-06-26T09:14:04.929Z,6336.00
2019-06-26T09:15:05.960Z,5128.00
2019-06-26T09:16:06.366Z,4724.00
2019-06-26T09:17:05.480Z,4700.00
2019-06-26T09:18:06.550Z,3992.00
2019-06-26T09:19:05.771Z,3804.00
2019-06-26T09:20:05.900Z,3772.00
2019-06-26T09:21:06.986Z,4324.00
2019-06-26T09:22:40.871Z,4104.00
2019-06-26T09:23:07.099Z,3832.00
2019-06-26T09:24:08.232Z,3592.00
2019-06-26T09:25:20.828Z,3724.00
2019-06-26T09:26:08.255Z,3880.00
2019-06-26T09:27:07.316Z,3680.00
2019-06-26T09:28:07.565Z,3736.00
2019-06-26T09:29:07.684Z,3584.00
2019-06-26T09:30:08.093Z,3456.00
2019-06-26T09:31:08.358Z,3440.00
2019-06-26T09:32:08.376Z,3372.00
2019-06-26T09:33:08.490Z,3448.00
2019-06-26T09:34:08.708Z,4312.00
2019-06-26T09:35:08.928Z,4740.00
2019-06-26T09:36:10.034Z,4896.00
2019-06-26T09:37:09.279Z,4540.00
2019-06-26T09:38:09.458Z,8212.00
2019-06-26T09:39:09.583Z,3584.00
2019-06-26T09:40:09.698Z,5828.00
2019-06-26T09:41:09.832Z,3956.00
2019-06-26T09:42:09.945Z,7840.00
2019-06-26T09:43:10.199Z,3240.00
2019-06-26T09:44:10.276Z,3568.00
2019-06-26T09:45:10.519Z,4388.00
2019-06-26T09:46:10.726Z,3928.00
2019-06-26T09:47:10.862Z,3248.00
2019-06-26T09:48:11.055Z,3472.00
2019-06-26T09:49:11.159Z,3212.00
2019-06-26T09:50:11.407Z,3200.00
2019-06-26T09:51:11.513Z,3176.00
2019-06-26T09:52:11.785Z,3192.00
2019-06-26T09:53:11.910Z,3192.00
2019-06-26T09:54:12.094Z,3168.00
2019-06-26T09:55:13.016Z,3264.00
2019-06-26T09:56:12.368Z,3396.00
2019-06-26T09:57:13.562Z,3464.00
2019-06-26T09:58:13.484Z,4068.00
2019-06-26T09:59:14.540Z,4200.00
2019-06-26T10:00:13.032Z,3012.00
2019-06-26T10:01:14.256Z,3060.00
2019-06-26T10:02:13.545Z,3028.00
2019-06-26T10:03:13.553Z,3032.00
2019-06-26T10:04:13.708Z,3024.00
2019-06-26T10:05:13.845Z,3336.00
2019-06-26T10:06:13.959Z,3856.00
2019-06-26T10:07:14.087Z,4504.00
2019-06-26T10:08:14.398Z,3388.00
2019-06-26T10:09:14.504Z,3040.00
2019-06-26T10:10:14.673Z,3320.00
2019-06-26T10:11:14.774Z,3612.00
2019-06-26T10:12:14.926Z,4452.00
2019-06-26T10:13:15.116Z,3788.00
2019-06-26T10:14:15.243Z,4044.00
2019-06-26T10:15:15.396Z,3916.00
2019-06-26T10:16:15.564Z,4204.00
2019-06-26T10:17:49.934Z,3072.00
2019-06-26T10:18:16.099Z,3720.00
2019-06-26T10:19:16.173Z,4468.00
2019-06-26T10:20:17.555Z,3344.00
2019-06-26T10:21:33.805Z,3284.00
2019-06-26T10:22:38.658Z,3188.00
2019-06-26T10:23:27.894Z,2776.00
2019-06-26T10:24:19.126Z,3844.00
2019-06-26T10:25:17.065Z,3060.00
2019-06-26T10:26:17.159Z,2996.00
2019-06-26T10:27:17.376Z,3544.00
2019-06-26T10:28:17.613Z,4192.00
2019-06-26T10:29:18.662Z,4300.00
2019-06-26T10:30:17.869Z,3896.00
2019-06-26T10:31:18.579Z,4168.00
2019-06-26T10:32:19.331Z,3692.00
2019-06-26T10:33:18.439Z,3480.00
2019-06-26T10:34:18.684Z,4080.00
2019-06-26T10:35:18.766Z,4252.00
2019-06-26T10:36:18.895Z,4176.00
2019-06-26T10:37:19.132Z,4236.00
2019-06-26T10:38:19.274Z,4136.00
2019-06-26T10:39:19.385Z,4084.00
2019-06-26T10:40:19.561Z,4028.00
2019-06-26T10:41:19.663Z,3836.00
2019-06-26T10:42:19.859Z,3916.00
2019-06-26T10:43:19.995Z,3896.00
2019-06-26T10:44:20.169Z,3736.00
2019-06-26T10:45:20.280Z,3384.00
2019-06-26T10:46:20.570Z,2536.00
2019-06-26T10:47:20.682Z,2912.00
2019-06-26T10:48:20.820Z,2604.00
2019-06-26T10:49:26.958Z,2552.00
2019-06-26T10:50:23.062Z,2564.00
2019-06-26T10:51:21.186Z,3028.00
2019-06-26T10:52:21.337Z,2516.00
2019-06-26T10:53:21.468Z,3052.00
2019-06-26T10:54:21.601Z,2812.00
2019-06-26T10:55:21.739Z,2632.00
2019-06-26T10:56:21.863Z,3100.00
2019-06-26T10:57:22.002Z,2964.00
2019-06-26T10:58:22.150Z,2492.00
2019-06-26T10:59:22.500Z,2416.00
2019-06-26T11:00:22.601Z,2472.00
2019-06-26T11:01:22.840Z,2448.00
2019-06-26T11:02:23.105Z,2432.00
2019-06-26T11:03:23.313Z,2476.00
2019-06-26T11:04:23.427Z,2676.00
2019-06-26T11:05:23.666Z,2436.00
2019-06-26T11:06:23.911Z,2496.00
2019-06-26T11:07:24.208Z,2652.00
2019-06-26T11:08:24.338Z,2420.00
2019-06-26T11:09:24.500Z,2400.00
2019-06-26T11:10:24.632Z,2372.00
2019-06-26T11:11:24.821Z,2356.00
2019-06-26T11:12:24.938Z,2388.00
2019-06-26T11:13:25.069Z,2356.00
2019-06-26T11:14:25.215Z,2332.00
2019-06-26T11:15:25.347Z,2352.00
2019-06-26T11:16:25.478Z,2448.00
2019-06-26T11:17:26.634Z,2416.00
2019-06-26T11:18:25.872Z,2360.00
2019-06-26T11:19:42.401Z,2384.00
2019-06-26T11:20:27.080Z,2396.00
2019-06-26T11:21:26.349Z,2364.00
2019-06-26T11:22:26.515Z,2360.00
2019-06-26T11:23:26.660Z,2388.00
2019-06-26T11:24:26.823Z,2380.00
2019-06-26T11:25:26.941Z,2464.00
2019-06-26T11:26:27.083Z,2468.00
2019-06-26T11:27:27.230Z,2432.00
2019-06-26T11:28:27.386Z,2464.00
2019-06-26T11:29:27.531Z,2424.00
2019-06-26T11:30:27.743Z,2456.00
2019-06-26T11:31:27.890Z,2484.00
2019-06-26T11:32:28.030Z,2488.00
2019-06-26T11:33:28.354Z,2508.00
2019-06-26T11:34:28.473Z,2472.00
2019-06-26T11:35:28.657Z,2464.00
2019-06-26T11:36:28.832Z,2524.00
2019-06-26T11:37:29.000Z,2448.00
2019-06-26T11:38:29.187Z,2556.00
2019-06-26T11:39:29.333Z,2588.00
2019-06-26T11:40:29.496Z,2592.00
2019-06-26T11:41:29.667Z,2536.00
2019-06-26T11:42:32.690Z,2552.00
2019-06-26T11:43:31.008Z,2612.00
2019-06-26T11:44:30.173Z,2628.00
2019-06-26T11:45:30.313Z,2580.00
2019-06-26T11:46:30.483Z,2532.00
2019-06-26T11:47:30.647Z,2588.00
2019-06-26T11:48:30.844Z,2604.00
2019-06-26T11:49:31.010Z,2592.00
2019-06-26T11:50:31.203Z,2624.00
2019-06-26T11:51:31.400Z,2688.00
2019-06-26T11:52:31.539Z,2644.00
2019-06-26T11:53:31.715Z,2672.00
2019-06-26T11:54:31.873Z,2784.00
2019-06-26T11:55:32.016Z,2804.00
2019-06-26T11:56:32.164Z,2768.00
2019-06-26T11:57:32.299Z,2760.00
2019-06-26T11:58:32.474Z,2828.00
2019-06-26T11:59:32.599Z,2824.00
2019-06-26T12:00:32.796Z,2892.00
2019-06-26T12:01:32.981Z,2784.00
2019-06-26T12:02:33.106Z,2800.00
2019-06-26T12:03:33.252Z,2840.00
2019-06-26T12:04:33.411Z,2816.00
2019-06-26T12:05:33.583Z,2836.00
2019-06-26T12:06:33.734Z,2836.00
2019-06-26T12:07:33.987Z,2824.00
2019-06-26T12:08:34.332Z,2912.00
2019-06-26T12:09:34.322Z,2832.00
2019-06-26T12:10:34.468Z,2948.00
2019-06-26T12:11:34.634Z,2872.00
2019-06-26T12:12:34.762Z,2868.00
2019-06-26T12:13:34.905Z,2932.00
2019-06-26T12:14:35.038Z,2924.00
2019-06-26T12:15:35.207Z,2904.00
2019-06-26T12:16:35.370Z,2904.00
2019-06-26T12:17:35.539Z,2924.00
2019-06-26T12:18:35.723Z,2988.00
2019-06-26T12:19:35.814Z,3028.00
2019-06-26T12:20:36.018Z,2928.00
2019-06-26T12:21:36.254Z,2936.00
2019-06-26T12:22:36.383Z,2936.00
2019-06-26T12:23:36.635Z,2936.00
2019-06-26T12:24:36.811Z,2988.00
2019-06-26T12:25:37.004Z,3092.00